Time;durP1;ratioP1;P1;durP2;ratioP2;P2;SDS_P1;SDS_P2;PMS_P1;PMS_P2;Temp;Humidity;BMP_temperature;BMP_pressure;BME280_temperature;BME280_humidity;BME280_pressure;Samples;Min_cycle;Max_cycle;Signal;HPM_P1;HPM_P2
2023/05/03 00:01:42;;;;;;;6.65;1.95;;;9.50;82.10;;;;;;4971821;28;20037;-74
2023/05/03 00:04:07;;;;;;;6.03;1.58;;;9.60;83.00;;;;;;4952715;28;20107;-75
2023/05/03 00:06:33;;;;;;;7.53;2.30;;;9.60;81.10;;;;;;4963015;28;20098;-74
2023/05/03 00:08:58;;;;;;;6.80;1.48;;;9.60;81.30;;;;;;4956821;28;20034;-74
2023/05/03 00:11:24;;;;;;;7.43;1.50;;;9.60;83.50;;;;;;4956606;28;20014;-74
2023/05/03 00:13:50;;;;;;;6.85;1.73;;;9.60;84.70;;;;;;4960588;28;20625;-75
2023/05/03 00:16:16;;;;;;;4.45;1.85;;;9.50;80.20;;;;;;4968666;28;20090;-74
2023/05/03 00:18:41;;;;;;;6.15;1.70;;;9.50;79.20;;;;;;4968808;28;20393;-75
2023/05/03 00:21:07;;;;;;;10.95;1.98;;;9.50;81.40;;;;;;4962528;28;20031;-74
2023/05/03 00:23:33;;;;;;;6.00;1.80;;;9.50;84.40;;;;;;4971100;28;20019;-74
2023/05/03 00:25:58;;;;;;;7.20;1.63;;;9.50;83.00;;;;;;4963288;28;20125;-74
2023/05/03 00:28:25;;;;;;;6.72;1.48;;;9.50;82.60;;;;;;4965071;28;20023;-74
2023/05/03 00:30:51;;;;;;;4.60;1.60;;;9.40;82.00;;;;;;4961851;28;20031;-74
2023/05/03 00:33:17;;;;;;;5.22;1.80;;;9.40;80.80;;;;;;4961678;28;20133;-74
2023/05/03 00:35:43;;;;;;;4.30;1.77;;;9.40;82.50;;;;;;4959040;28;20059;-75
2023/05/03 00:38:09;;;;;;;6.30;2.25;;;9.30;79.90;;;;;;4942135;29;20026;-76
2023/05/03 00:40:35;;;;;;;4.03;2.15;;;9.30;79.40;;;;;;4964679;28;20027;-75
2023/05/03 00:43:01;;;;;;;4.53;2.08;;;9.30;79.70;;;;;;4969568;28;20508;-75
2023/05/03 00:45:32;;;;;;;9.60;2.47;;;9.30;79.90;;;;;;4963479;28;20035;-75
2023/05/03 00:47:58;;;;;;;6.72;2.67;;;9.20;79.40;;;;;;4955128;28;20600;-75
2023/05/03 00:50:24;;;;;;;8.55;3.25;;;9.20;79.80;;;;;;4971490;28;20026;-75
2023/05/03 00:52:51;;;;;;;10.07;2.95;;;9.20;80.90;;;;;;4965506;28;20057;-75
2023/05/03 00:55:16;;;;;;;9.15;3.55;;;9.20;85.90;;;;;;4968526;28;20121;-75
2023/05/03 00:57:42;;;;;;;7.13;2.83;;;9.10;82.60;;;;;;4956281;28;20499;-75
2023/05/03 01:00:09;;;;;;;6.72;2.75;;;9.10;81.40;;;;;;4968425;28;20058;-75
2023/05/03 01:02:35;;;;;;;4.32;2.00;;;9.00;81.50;;;;;;4969687;28;20396;-74
2023/05/03 01:05:02;;;;;;;6.18;2.42;;;9.00;81.50;;;;;;4961751;28;20039;-76
2023/05/03 01:07:34;;;;;;;4.65;2.20;;;9.00;81.70;;;;;;4954731;28;20034;-76
2023/05/03 01:10:15;;;;;;;11.90;3.13;;;9.00;83.90;;;;;;4968615;28;20095;-76
2023/05/03 01:13:08;;;;;;;6.50;2.10;;;8.90;84.90;;;;;;4952806;28;20067;-76
2023/05/03 01:16:15;;;;;;;7.43;2.50;;;8.90;83.10;;;;;;4965053;28;20047;-74
2023/05/03 01:18:43;;;;;;;6.78;2.35;;;8.80;82.20;;;;;;4957895;28;20024;-75
2023/05/03 01:21:10;;;;;;;8.40;2.25;;;8.80;82.70;;;;;;4970528;28;20449;-76
2023/05/03 01:24:07;;;;;;;7.32;2.47;;;8.70;83.50;;;;;;4958290;28;20117;-75
2023/05/03 01:26:33;;;;;;;5.25;2.42;;;8.70;83.50;;;;;;4957942;28;20039;-74
2023/05/03 01:29:01;;;;;;;11.15;2.83;;;8.80;83.00;;;;;;4959189;28;21376;-76
2023/05/03 01:31:32;;;;;;;7.32;2.22;;;8.80;85.10;;;;;;4961698;28;20031;-75
2023/05/03 01:34:25;;;;;;;8.40;2.63;;;8.80;85.00;;;;;;4953392;28;20051;-75
2023/05/03 01:36:56;;;;;;;9.65;2.65;;;8.70;83.70;;;;;;4952339;28;20050;-75
2023/05/03 01:39:25;;;;;;;8.35;2.90;;;8.80;84.30;;;;;;4954707;28;20015;-75
2023/05/03 01:41:51;;;;;;;5.57;2.43;;;8.70;82.90;;;;;;4967275;28;20033;-75
2023/05/03 01:44:18;;;;;;;8.27;2.65;;;8.70;83.00;;;;;;4952279;28;20792;-75
2023/05/03 01:46:45;;;;;;;7.53;3.22;;;8.70;83.20;;;;;;4954074;28;20019;-74
2023/05/03 01:49:11;;;;;;;6.38;2.35;;;8.60;83.00;;;;;;4957337;28;20038;-75
2023/05/03 01:51:36;;;;;;;8.23;3.05;;;8.60;83.90;;;;;;4969991;28;20027;-74
2023/05/03 01:54:02;;;;;;;5.32;1.73;;;8.60;84.00;;;;;;4956936;28;20487;-75
2023/05/03 01:56:30;;;;;;;10.43;3.00;;;8.60;87.60;;;;;;4960673;28;20718;-76
2023/05/03 01:58:56;;;;;;;10.45;2.70;;;8.60;86.70;;;;;;4957548;28;20050;-75
2023/05/03 02:01:21;;;;;;;8.27;2.40;;;8.60;86.20;;;;;;4963058;28;20486;-76
2023/05/03 02:03:47;;;;;;;5.32;2.42;;;8.60;88.60;;;;;;4964487;28;20030;-74
2023/05/03 02:06:13;;;;;;;6.38;2.50;;;8.60;87.90;;;;;;4960437;28;20073;-75
2023/05/03 02:08:38;;;;;;;7.65;2.40;;;8.60;88.60;;;;;;4957049;28;20027;-75
2023/05/03 02:11:05;;;;;;;7.78;2.63;;;8.60;90.00;;;;;;4967801;28;20023;-76
2023/05/03 02:13:31;;;;;;;6.05;2.53;;;8.60;90.00;;;;;;4953046;28;20033;-75
2023/05/03 02:15:56;;;;;;;6.60;2.53;;;8.60;88.70;;;;;;4958537;28;20031;-75
2023/05/03 02:18:22;;;;;;;8.25;2.75;;;8.60;88.60;;;;;;4970150;28;20030;-73
2023/05/03 02:20:48;;;;;;;11.07;2.58;;;8.60;89.50;;;;;;4969052;28;20030;-75
2023/05/03 02:23:13;;;;;;;11.90;2.42;;;8.60;89.60;;;;;;4961990;28;20109;-75
2023/05/03 02:25:40;;;;;;;9.77;2.45;;;8.60;91.00;;;;;;4970788;28;20150;-74
2023/05/03 02:28:05;;;;;;;6.55;1.85;;;8.50;90.20;;;;;;4942567;28;20409;-75
2023/05/03 02:30:32;;;;;;;6.60;1.75;;;8.50;89.70;;;;;;4950696;28;20027;-75
2023/05/03 02:32:58;;;;;;;8.27;2.40;;;8.60;90.00;;;;;;4968763;28;20050;-75
2023/05/03 02:35:25;;;;;;;7.65;2.60;;;8.60;90.80;;;;;;4962813;28;20509;-74
2023/05/03 02:37:50;;;;;;;9.43;2.78;;;8.60;89.20;;;;;;4965374;28;20019;-75
2023/05/03 02:40:16;;;;;;;11.98;3.20;;;8.60;86.70;;;;;;4962184;28;20070;-75
2023/05/03 02:42:42;;;;;;;8.68;2.63;;;8.60;87.50;;;;;;4964588;28;20469;-75
2023/05/03 02:45:08;;;;;;;7.60;2.70;;;8.60;87.10;;;;;;4963057;28;20035;-75
2023/05/03 02:47:33;;;;;;;8.65;2.45;;;8.60;87.50;;;;;;4964636;28;20074;-75
2023/05/03 02:49:59;;;;;;;6.40;2.42;;;8.60;87.30;;;;;;4970681;28;20034;-75
2023/05/03 02:52:25;;;;;;;9.30;3.08;;;8.50;87.30;;;;;;4963525;28;20023;-74
2023/05/03 02:54:50;;;;;;;8.23;2.78;;;8.50;85.70;;;;;;4969721;28;20033;-75
2023/05/03 02:57:16;;;;;;;7.57;2.22;;;8.50;84.50;;;;;;4960564;28;20031;-75
2023/05/03 02:59:41;;;;;;;9.88;2.90;;;8.50;85.50;;;;;;4962510;28;20816;-75
2023/05/03 03:02:07;;;;;;;6.18;2.25;;;8.40;86.50;;;;;;4957229;28;20023;-74
2023/05/03 03:04:33;;;;;;;7.65;2.80;;;8.40;84.70;;;;;;4965961;28;20039;-74
2023/05/03 03:06:58;;;;;;;6.45;2.90;;;8.40;84.50;;;;;;4969450;28;20457;-74
2023/05/03 03:09:24;;;;;;;8.35;2.30;;;8.40;84.00;;;;;;4969845;28;20397;-75
2023/05/03 03:11:51;;;;;;;8.43;2.67;;;8.40;84.60;;;;;;4969336;28;20057;-76
2023/05/03 03:14:17;;;;;;;7.97;2.85;;;8.40;84.20;;;;;;4967944;28;20037;-74
2023/05/03 03:16:44;;;;;;;6.82;2.28;;;8.40;83.90;;;;;;4966598;28;20027;-74
2023/05/03 03:19:10;;;;;;;6.90;2.50;;;8.30;85.00;;;;;;4956831;28;20028;-75
2023/05/03 03:21:36;;;;;;;7.60;2.50;;;8.30;84.20;;;;;;4966658;28;20027;-74
2023/05/03 03:24:03;;;;;;;7.90;2.70;;;8.30;84.40;;;;;;4965004;28;20078;-75
2023/05/03 03:26:29;;;;;;;6.70;2.20;;;8.30;84.10;;;;;;4968942;28;20794;-73
2023/05/03 03:28:55;;;;;;;7.05;2.40;;;8.30;83.70;;;;;;4957817;28;20053;-75
2023/05/03 03:31:21;;;;;;;7.07;2.08;;;8.30;85.00;;;;;;4968414;28;20355;-74
2023/05/03 03:33:48;;;;;;;8.13;2.20;;;8.30;83.70;;;;;;4956631;28;20051;-77
2023/05/03 03:36:14;;;;;;;5.25;2.13;;;8.30;83.40;;;;;;4968236;28;20333;-75
2023/05/03 03:38:40;;;;;;;10.23;2.85;;;8.30;83.30;;;;;;4967921;28;20507;-75
2023/05/03 03:41:06;;;;;;;8.27;2.80;;;8.30;85.00;;;;;;4968449;28;20034;-75
2023/05/03 03:43:31;;;;;;;7.72;2.50;;;8.30;83.90;;;;;;4957483;28;21071;-74
2023/05/03 03:45:57;;;;;;;10.65;2.40;;;8.20;83.60;;;;;;4960771;28;20034;-73
2023/05/03 03:48:23;;;;;;;7.75;2.53;;;8.20;83.60;;;;;;4950824;28;20027;-74
2023/05/03 03:50:49;;;;;;;6.38;2.60;;;8.20;83.60;;;;;;4941578;28;20023;-75
2023/05/03 03:53:14;;;;;;;8.13;2.42;;;8.20;83.90;;;;;;4962525;28;20031;-74
2023/05/03 03:55:40;;;;;;;11.95;3.00;;;8.20;83.70;;;;;;4967152;28;20029;-74
2023/05/03 03:58:06;;;;;;;8.38;3.40;;;8.10;83.60;;;;;;4957340;28;20033;-74
2023/05/03 04:00:33;;;;;;;8.27;2.47;;;8.10;84.00;;;;;;4968593;28;20553;-74
2023/05/03 04:02:59;;;;;;;7.15;2.45;;;8.10;83.80;;;;;;4943581;29;20482;-75
2023/05/03 04:05:24;;;;;;;6.50;2.28;;;8.10;84.80;;;;;;4962166;28;20089;-74
2023/05/03 04:07:50;;;;;;;9.63;2.38;;;8.10;84.40;;;;;;4965476;28;20031;-74
2023/05/03 04:10:17;;;;;;;3.80;1.70;;;8.10;84.40;;;;;;4964792;28;20074;-75
2023/05/03 04:12:43;;;;;;;7.70;2.95;;;8.10;85.00;;;;;;4956049;28;20100;-74
2023/05/03 04:15:10;;;;;;;8.45;2.67;;;8.10;84.70;;;;;;4957933;28;20030;-75
2023/05/03 04:17:35;;;;;;;6.50;2.28;;;8.10;84.70;;;;;;4962263;28;20035;-74
2023/05/03 04:20:09;;;;;;;5.70;2.30;;;8.10;84.70;;;;;;4953891;28;20031;-74
2023/05/03 04:22:37;;;;;;;8.52;2.90;;;8.10;84.80;;;;;;4969277;28;20023;-73
2023/05/03 04:25:03;;;;;;;8.48;2.63;;;8.10;84.90;;;;;;4968105;28;20050;-74
2023/05/03 04:27:29;;;;;;;6.57;2.60;;;8.10;84.90;;;;;;4967500;28;20027;-74
2023/05/03 04:29:55;;;;;;;8.18;3.08;;;8.10;85.00;;;;;;4955280;28;20046;-74
2023/05/03 04:32:22;;;;;;;6.68;2.47;;;8.10;85.20;;;;;;4965084;28;20031;-75
2023/05/03 04:34:51;;;;;;;9.50;2.30;;;8.10;85.20;;;;;;4966946;28;20482;-74
2023/05/03 04:37:18;;;;;;;7.20;2.60;;;8.10;85.20;;;;;;4961901;28;20058;-73
2023/05/03 04:39:44;;;;;;;11.05;3.08;;;8.10;85.40;;;;;;4948642;29;20026;-72
2023/05/03 04:42:13;;;;;;;6.65;2.42;;;8.10;85.60;;;;;;4960802;28;20393;-73
2023/05/03 04:44:38;;;;;;;10.93;3.13;;;8.10;85.60;;;;;;4955575;28;20047;-74
2023/05/03 04:47:04;;;;;;;9.48;3.75;;;8.20;85.60;;;;;;4966999;28;20037;-76
2023/05/03 04:49:30;;;;;;;7.20;3.03;;;8.10;85.70;;;;;;4957280;28;20421;-75
2023/05/03 04:51:55;;;;;;;9.15;2.97;;;8.20;85.90;;;;;;4961629;28;20059;-74
2023/05/03 04:54:21;;;;;;;8.95;3.55;;;8.20;86.90;;;;;;4958972;28;20062;-75
2023/05/03 04:56:46;;;;;;;10.90;3.40;;;8.20;88.00;;;;;;4970247;28;20027;-73
2023/05/03 04:59:12;;;;;;;5.47;2.10;;;8.20;87.00;;;;;;4964954;28;20521;-74
2023/05/03 05:01:41;;;;;;;9.23;2.50;;;8.30;86.80;;;;;;4962869;28;20011;-74
2023/05/03 05:04:07;;;;;;;7.85;2.60;;;8.30;86.70;;;;;;4967891;28;20042;-75
2023/05/03 05:06:32;;;;;;;9.55;2.92;;;8.30;86.20;;;;;;4963489;28;20023;-76
2023/05/03 05:08:58;;;;;;;6.60;2.10;;;8.40;86.10;;;;;;4964030;28;20027;-75
2023/05/03 05:11:24;;;;;;;9.23;3.15;;;8.50;87.40;;;;;;4964693;28;20492;-76
2023/05/03 05:13:49;;;;;;;11.88;3.85;;;8.60;86.60;;;;;;4957621;28;20031;-74
2023/05/03 05:16:16;;;;;;;13.43;3.53;;;8.60;86.10;;;;;;4961946;28;20165;-75
2023/05/03 05:18:42;;;;;;;8.68;2.83;;;8.70;85.90;;;;;;4969164;28;20153;-74
2023/05/03 05:21:07;;;;;;;10.32;2.75;;;8.80;85.60;;;;;;4971930;28;20105;-75
2023/05/03 05:23:33;;;;;;;10.07;3.60;;;8.80;85.50;;;;;;4971216;28;20482;-75
2023/05/03 05:25:59;;;;;;;8.48;3.53;;;8.90;85.40;;;;;;4971152;28;20046;-76
2023/05/03 05:28:26;;;;;;;7.40;2.75;;;8.90;85.00;;;;;;4966677;28;20036;-75
2023/05/03 05:30:52;;;;;;;8.05;2.75;;;9.00;85.20;;;;;;4970377;28;20073;-75
2023/05/03 05:33:18;;;;;;;9.15;3.08;;;9.10;85.20;;;;;;4966838;28;20046;-76
2023/05/03 05:35:46;;;;;;;10.52;3.00;;;9.20;85.10;;;;;;4951645;28;20042;-75
2023/05/03 05:38:11;;;;;;;12.90;2.85;;;9.20;85.10;;;;;;4963854;28;20386;-75
2023/05/03 05:40:37;;;;;;;12.32;2.78;;;9.30;84.80;;;;;;4961889;28;20024;-75
2023/05/03 05:43:03;;;;;;;11.32;2.80;;;9.40;84.80;;;;;;4961361;28;20023;-74
2023/05/03 05:45:29;;;;;;;9.73;2.75;;;9.50;84.70;;;;;;4952142;28;20042;-75
2023/05/03 05:47:55;;;;;;;6.18;2.28;;;9.50;84.50;;;;;;4968657;28;20028;-75
2023/05/03 05:50:21;;;;;;;6.40;2.60;;;9.60;84.30;;;;;;4969685;28;20023;-76
2023/05/03 05:52:50;;;;;;;9.02;2.58;;;9.70;84.20;;;;;;4943351;28;20105;-75
2023/05/03 05:55:15;;;;;;;8.15;2.53;;;9.70;83.80;;;;;;4969352;28;20046;-76
2023/05/03 05:57:41;;;;;;;10.95;2.85;;;9.70;84.40;;;;;;4966802;28;20055;-78
2023/05/03 06:00:13;;;;;;;13.18;3.05;;;9.80;84.50;;;;;;4966760;28;20193;-75
2023/05/03 06:02:41;;;;;;;7.25;2.88;;;9.90;83.60;;;;;;4968381;28;20019;-75
2023/05/03 06:05:07;;;;;;;10.07;2.65;;;10.00;82.80;;;;;;4967178;28;20117;-75
2023/05/03 06:07:33;;;;;;;11.00;2.97;;;10.00;82.60;;;;;;4967782;28;20828;-76
2023/05/03 06:09:59;;;;;;;11.63;3.17;;;10.00;83.10;;;;;;4967859;28;20027;-75
2023/05/03 06:12:25;;;;;;;8.77;2.35;;;10.20;82.40;;;;;;4963577;28;20488;-77
2023/05/03 06:14:51;;;;;;;7.82;2.70;;;10.30;81.90;;;;;;4967912;28;20038;-76
2023/05/03 06:17:17;;;;;;;8.43;2.08;;;10.40;81.60;;;;;;4965948;28;20026;-75
2023/05/03 06:19:43;;;;;;;8.15;2.42;;;10.50;80.70;;;;;;4966111;28;20474;-75
2023/05/03 06:22:10;;;;;;;9.55;1.90;;;10.60;81.00;;;;;;4969051;28;20102;-76
2023/05/03 06:24:35;;;;;;;6.82;1.98;;;10.70;79.80;;;;;;4964791;28;20023;-76
2023/05/03 06:27:01;;;;;;;8.23;2.00;;;10.80;78.20;;;;;;4967032;28;20098;-76
2023/05/03 06:29:28;;;;;;;6.90;2.40;;;10.90;77.70;;;;;;4951575;28;20023;-79
2023/05/03 06:31:54;;;;;;;7.60;2.17;;;10.90;76.10;;;;;;4969606;28;20070;-80
2023/05/03 06:34:20;;;;;;;14.30;2.35;;;10.80;76.70;;;;;;4967822;28;20046;-79
2023/05/03 06:36:46;;;;;;;8.90;1.77;;;10.90;77.30;;;;;;4970523;28;20030;-77
2023/05/03 06:39:11;;;;;;;5.88;1.70;;;11.10;76.50;;;;;;4967686;28;20019;-79
2023/05/03 06:41:37;;;;;;;5.43;1.70;;;11.20;75.80;;;;;;4967997;28;20027;-80
2023/05/03 06:44:03;;;;;;;5.38;1.70;;;11.20;73.70;;;;;;4968236;28;20129;-79
2023/05/03 06:46:29;;;;;;;6.90;1.73;;;11.30;73.60;;;;;;4968252;28;20010;-77
2023/05/03 06:48:56;;;;;;;6.28;1.58;;;11.30;74.00;;;;;;4965733;28;20563;-77
2023/05/03 06:51:31;;;;;;;8.95;1.85;;;11.40;73.00;;;;;;4966916;28;20022;-76
2023/05/03 06:54:05;;;;;;;8.57;2.00;;;11.40;72.90;;;;;;4946661;28;20687;-76
2023/05/03 06:56:32;;;;;;;9.77;1.98;;;11.50;73.40;;;;;;4965339;28;20445;-77
2023/05/03 06:58:59;;;;;;;4.60;1.92;;;11.60;75.60;;;;;;4966211;28;20042;-76
2023/05/03 07:01:24;;;;;;;10.18;1.95;;;11.70;75.60;;;;;;4967407;28;20034;-76
2023/05/03 07:03:50;;;;;;;5.93;1.85;;;11.70;72.70;;;;;;4959396;28;20061;-77
2023/05/03 07:06:17;;;;;;;5.85;1.63;;;11.70;72.10;;;;;;4960925;28;20019;-77
2023/05/03 07:08:43;;;;;;;7.68;1.92;;;11.60;72.20;;;;;;4961472;28;20026;-75
2023/05/03 07:11:09;;;;;;;4.63;1.70;;;11.70;73.80;;;;;;4960107;28;20031;-77
2023/05/03 07:13:35;;;;;;;7.47;2.38;;;11.70;71.50;;;;;;4963620;28;20155;-79
2023/05/03 07:16:00;;;;;;;3.70;1.52;;;11.70;72.80;;;;;;4956890;28;20027;-76
2023/05/03 07:18:27;;;;;;;6.22;1.40;;;11.80;73.60;;;;;;4957607;28;20028;-77
2023/05/03 07:20:53;;;;;;;5.90;1.65;;;11.90;74.20;;;;;;4969870;28;20377;-76
2023/05/03 07:23:19;;;;;;;6.43;2.10;;;11.90;73.20;;;;;;4968906;28;20023;-77
2023/05/03 07:25:44;;;;;;;3.47;1.35;;;12.00;72.00;;;;;;4959721;28;20058;-77
2023/05/03 07:28:11;;;;;;;6.95;1.85;;;12.10;74.30;;;;;;4966669;28;20061;-77
2023/05/03 07:30:36;;;;;;;2.70;1.42;;;12.30;75.50;;;;;;4971390;28;20105;-76
2023/05/03 07:33:02;;;;;;;5.78;1.83;;;12.40;71.50;;;;;;4966642;28;20130;-77
2023/05/03 07:35:28;;;;;;;4.32;1.52;;;12.50;70.50;;;;;;4969420;28;20027;-78
2023/05/03 07:37:55;;;;;;;6.13;1.85;;;12.50;74.10;;;;;;4968804;28;20023;-77
2023/05/03 07:40:21;;;;;;;6.82;2.38;;;12.70;72.50;;;;;;4963288;28;20023;-77
2023/05/03 07:42:47;;;;;;;7.07;1.77;;;12.70;73.10;;;;;;4970427;28;20473;-78
2023/05/03 07:45:13;;;;;;;4.65;1.60;;;12.70;71.10;;;;;;4970418;28;20150;-76
2023/05/03 07:47:39;;;;;;;7.15;2.22;;;12.60;73.50;;;;;;4969382;28;20098;-77
2023/05/03 07:50:06;;;;;;;6.00;1.77;;;12.70;70.10;;;;;;4940125;29;20066;-75
2023/05/03 07:52:38;;;;;;;6.00;2.55;;;12.80;70.40;;;;;;4959930;28;20750;-78
2023/05/03 07:55:05;;;;;;;6.05;2.03;;;12.90;69.00;;;;;;4962784;28;20403;-78
2023/05/03 07:57:31;;;;;;;8.07;2.85;;;13.00;67.10;;;;;;4960405;28;20019;-82
2023/05/03 07:59:57;;;;;;;7.72;2.10;;;13.00;68.00;;;;;;4974371;28;20046;-82
2023/05/03 08:02:24;;;;;;;5.40;2.10;;;13.00;68.70;;;;;;4961046;28;20046;-83
2023/05/03 08:04:50;;;;;;;7.78;2.03;;;13.00;67.60;;;;;;4970002;28;20045;-82
2023/05/03 08:07:18;;;;;;;6.80;2.03;;;13.20;70.60;;;;;;4963621;28;20028;-79
2023/05/03 08:09:44;;;;;;;6.65;2.10;;;13.20;69.00;;;;;;4961457;28;20027;-81
2023/05/03 08:12:11;;;;;;;8.60;2.15;;;13.40;74.30;;;;;;4958170;28;20027;-81
2023/05/03 08:14:36;;;;;;;8.52;2.30;;;13.50;68.30;;;;;;4959408;28;20082;-79
2023/05/03 08:17:06;;;;;;;8.18;2.08;;;13.60;70.10;;;;;;4961006;28;20031;-80
2023/05/03 08:19:32;;;;;;;6.22;1.42;;;13.70;70.90;;;;;;4964144;28;20074;-80
2023/05/03 08:21:57;;;;;;;9.57;2.22;;;13.80;65.20;;;;;;4975330;28;20031;-79
2023/05/03 08:24:23;;;;;;;3.67;1.70;;;13.80;66.20;;;;;;4974171;28;20062;-83
2023/05/03 08:26:49;;;;;;;5.53;1.95;;;13.90;65.50;;;;;;4973934;28;20030;-82
2023/05/03 08:29:15;;;;;;;7.90;2.08;;;14.10;71.50;;;;;;4957055;28;20082;-80
2023/05/03 08:31:42;;;;;;;6.50;1.70;;;14.30;67.00;;;;;;4974489;28;20389;-80
2023/05/03 08:34:09;;;;;;;7.78;1.95;;;14.50;65.80;;;;;;4951419;28;20054;-82
2023/05/03 08:36:37;;;;;;;10.02;2.47;;;14.50;63.60;;;;;;4965405;28;20031;-80
2023/05/03 08:39:06;;;;;;;6.30;1.75;;;14.60;64.60;;;;;;4968222;28;20157;-80
2023/05/03 08:41:32;;;;;;;6.88;2.03;;;14.70;67.80;;;;;;4978509;28;20027;-79
2023/05/03 08:43:59;;;;;;;6.93;2.72;;;14.60;62.80;;;;;;4960586;28;20043;-78
2023/05/03 08:46:27;;;;;;;5.13;1.98;;;14.80;64.70;;;;;;4974276;28;20022;-78
2023/05/03 08:48:58;;;;;;;5.50;2.17;;;15.00;68.50;;;;;;4954153;29;20054;-82
2023/05/03 08:51:24;;;;;;;5.05;1.70;;;15.10;62.60;;;;;;4971996;28;20061;-80
2023/05/03 08:53:50;;;;;;;7.65;1.85;;;15.20;64.80;;;;;;4948884;28;20051;-81
2023/05/03 08:56:25;;;;;;;5.43;1.80;;;15.40;62.60;;;;;;4974166;28;20027;-82
2023/05/03 08:58:51;;;;;;;11.10;2.35;;;15.50;62.60;;;;;;4956973;28;20157;-80
2023/05/03 09:01:19;;;;;;;8.50;2.00;;;15.60;63.60;;;;;;4974042;28;20076;-78
2023/05/03 09:03:49;;;;;;;6.25;1.90;;;15.80;62.10;;;;;;4960826;28;20038;-77
2023/05/03 09:06:20;;;;;;;4.95;1.58;;;15.80;59.20;;;;;;4968947;28;20086;-82
2023/05/03 09:08:45;;;;;;;4.40;1.70;;;15.60;64.00;;;;;;4961769;28;20378;-81
2023/05/03 09:11:22;;;;;;;9.38;2.20;;;15.50;58.80;;;;;;4972527;28;20081;-81
2023/05/03 09:13:48;;;;;;;6.10;1.80;;;15.50;64.10;;;;;;4962136;28;20106;-81
2023/05/03 09:16:28;;;;;;;4.45;1.90;;;15.70;61.70;;;;;;4962122;28;20039;-80
2023/05/03 09:19:03;;;;;;;7.35;1.88;;;15.90;62.20;;;;;;4957484;28;20110;-81
2023/05/03 09:21:32;;;;;;;7.80;2.30;;;15.90;59.40;;;;;;4971328;28;20042;-80
2023/05/03 09:23:58;;;;;;;7.03;1.80;;;15.60;59.80;;;;;;4972214;28;20436;-78
2023/05/03 09:26:31;;;;;;;7.43;1.63;;;15.70;63.90;;;;;;4966663;28;20081;-79
2023/05/03 09:28:58;;;;;;;5.35;1.48;;;16.00;67.20;;;;;;4969420;28;20038;-82
2023/05/03 09:31:23;;;;;;;6.50;2.13;;;16.30;69.20;;;;;;4970271;28;20028;-81
2023/05/03 09:33:50;;;;;;;6.15;1.98;;;16.60;66.10;;;;;;4970894;28;20068;-82
2023/05/03 09:36:16;;;;;;;6.35;1.98;;;16.80;63.30;;;;;;4966920;28;20027;-81
2023/05/03 09:38:41;;;;;;;7.93;2.35;;;16.80;58.70;;;;;;4959983;28;20607;-79
2023/05/03 09:41:07;;;;;;;4.22;1.55;;;17.10;65.10;;;;;;4970520;28;20026;-79
2023/05/03 09:43:34;;;;;;;7.43;2.38;;;17.20;61.40;;;;;;4969444;28;20501;-80
2023/05/03 09:46:08;;;;;;;7.85;1.90;;;17.20;60.00;;;;;;4970353;28;20114;-79
2023/05/03 09:48:35;;;;;;;7.32;1.63;;;17.20;62.60;;;;;;4961455;28;20022;-82
2023/05/03 09:51:04;;;;;;;4.28;1.67;;;17.10;62.40;;;;;;4972673;28;20064;-81
2023/05/03 09:53:31;;;;;;;8.10;2.90;;;17.20;60.00;;;;;;4972754;28;20073;-79
2023/05/03 09:55:58;;;;;;;6.65;1.92;;;17.30;57.60;;;;;;4977519;28;20474;-79
2023/05/03 09:58:26;;;;;;;5.25;2.00;;;17.30;56.70;;;;;;4956295;28;20041;-79
2023/05/03 10:00:53;;;;;;;8.27;2.00;;;17.20;56.60;;;;;;4958404;28;20027;-80
2023/05/03 10:03:47;;;;;;;8.38;2.30;;;17.10;55.30;;;;;;4972993;28;20022;-80
2023/05/03 10:06:22;;;;;;;7.43;2.22;;;17.10;58.80;;;;;;4960634;28;20034;-79
2023/05/03 10:09:07;;;;;;;7.68;1.95;;;17.00;55.60;;;;;;4953978;28;20034;-81
2023/05/03 10:11:37;;;;;;;6.32;2.08;;;17.30;64.70;;;;;;4957087;28;20042;-78
2023/05/03 10:14:06;;;;;;;5.35;2.15;;;17.60;63.70;;;;;;4968908;28;20035;-79
2023/05/03 10:16:37;;;;;;;6.68;2.17;;;17.80;59.70;;;;;;4955667;28;20546;-80
2023/05/03 10:19:18;;;;;;;7.63;2.55;;;17.60;57.00;;;;;;4971803;28;20041;-79
2023/05/03 10:22:06;;;;;;;5.53;2.28;;;17.50;54.10;;;;;;4960882;28;20115;-80
2023/05/03 10:24:36;;;;;;;5.75;1.73;;;17.40;55.10;;;;;;4955421;28;20027;-79
2023/05/03 10:27:06;;;;;;;4.43;1.50;;;17.50;56.10;;;;;;4957270;28;20503;-79
2023/05/03 10:29:34;;;;;;;4.50;1.73;;;17.60;57.60;;;;;;4969060;28;20023;-79
2023/05/03 10:32:04;;;;;;;5.75;2.00;;;17.60;55.70;;;;;;4969218;28;20035;-80
2023/05/03 10:34:38;;;;;;;4.18;1.80;;;17.70;56.70;;;;;;4963001;28;20165;-78
2023/05/03 10:37:14;;;;;;;4.32;1.92;;;17.70;54.00;;;;;;4968985;28;20386;-79
2023/05/03 10:39:44;;;;;;;5.20;1.45;;;17.60;55.00;;;;;;4969917;28;20023;-78
2023/05/03 10:42:12;;;;;;;5.38;1.85;;;17.70;60.60;;;;;;4969186;28;20897;-78
2023/05/03 10:44:47;;;;;;;6.82;2.33;;;17.80;56.20;;;;;;4967742;28;20039;-79
2023/05/03 10:47:21;;;;;;;4.72;1.55;;;17.80;55.50;;;;;;4968341;28;20538;-78
2023/05/03 10:50:07;;;;;;;5.85;2.17;;;17.80;61.20;;;;;;4967043;28;20062;-78
2023/05/03 10:52:39;;;;;;;6.07;2.17;;;18.00;61.10;;;;;;4959288;28;20027;-79
2023/05/03 10:55:19;;;;;;;7.03;1.88;;;18.20;56.90;;;;;;4967940;28;20022;-79
2023/05/03 10:57:47;;;;;;;3.85;1.70;;;18.60;57.40;;;;;;4956518;28;20024;-83
2023/05/03 11:00:23;;;;;;;4.53;1.67;;;18.90;58.90;;;;;;4966521;28;20466;-81
2023/05/03 11:03:01;;;;;;;5.25;2.05;;;18.90;53.60;;;;;;4959531;28;20137;-81
2023/05/03 11:05:28;;;;;;;3.58;1.30;;;18.70;53.40;;;;;;4962613;28;20038;-80
2023/05/03 11:08:08;;;;;;;6.90;2.40;;;18.70;58.90;;;;;;4967126;28;20034;-80
2023/05/03 11:10:34;;;;;;;5.00;1.85;;;18.70;52.30;;;;;;4965570;28;20023;-80
2023/05/03 11:12:59;;;;;;;9.25;2.38;;;18.50;53.80;;;;;;4956428;28;20031;-78
2023/05/03 11:15:28;;;;;;;5.32;2.33;;;18.20;52.40;;;;;;4962940;28;20042;-77
2023/05/03 11:17:54;;;;;;;7.20;2.00;;;18.20;54.90;;;;;;4968721;28;20027;-79
2023/05/03 11:20:20;;;;;;;4.85;1.95;;;18.40;53.90;;;;;;4969305;28;20076;-79
2023/05/03 11:22:46;;;;;;;4.72;1.35;;;18.70;56.60;;;;;;4971636;28;20114;-78
2023/05/03 11:25:12;;;;;;;4.88;2.08;;;18.70;56.20;;;;;;4970793;28;20054;-78
2023/05/03 11:27:40;;;;;;;5.97;2.58;;;18.80;59.40;;;;;;4969317;28;20023;-79
2023/05/03 11:30:08;;;;;;;6.50;1.90;;;18.80;52.00;;;;;;4970898;28;20022;-80
2023/05/03 11:32:33;;;;;;;7.15;2.05;;;18.90;52.20;;;;;;4968710;28;20019;-78
2023/05/03 11:35:02;;;;;;;5.65;1.90;;;19.00;53.30;;;;;;4970697;28;20155;-78
2023/05/03 11:37:28;;;;;;;5.78;1.40;;;19.20;56.90;;;;;;4965584;28;20027;-78
2023/05/03 11:39:53;;;;;;;4.97;2.15;;;19.40;56.80;;;;;;4969675;28;20053;-79
2023/05/03 11:42:20;;;;;;;5.32;1.85;;;19.70;52.50;;;;;;4964524;28;20019;-78
2023/05/03 11:44:45;;;;;;;3.97;1.27;;;19.90;51.50;;;;;;4970854;28;20093;-80
2023/05/03 11:47:11;;;;;;;5.28;2.05;;;20.10;66.80;;;;;;4972544;28;20485;-79
2023/05/03 11:49:38;;;;;;;3.75;1.10;;;20.20;59.60;;;;;;4972080;28;20054;-77
2023/05/03 11:52:03;;;;;;;3.47;1.00;;;20.30;64.10;;;;;;4973168;28;20042;-78
2023/05/03 11:54:31;;;;;;;4.90;1.52;;;20.50;68.40;;;;;;4975917;28;20528;-79
2023/05/03 11:56:57;;;;;;;4.88;2.25;;;20.60;57.70;;;;;;4964106;28;20027;-79
2023/05/03 11:59:37;;;;;;;5.57;2.67;;;20.50;49.30;;;;;;4975122;28;20024;-82
2023/05/03 12:02:05;;;;;;;11.95;2.55;;;20.30;50.20;;;;;;4966994;28;20031;-79
2023/05/03 12:04:31;;;;;;;5.90;2.40;;;19.90;48.40;;;;;;4947199;28;20478;-80
2023/05/03 12:06:57;;;;;;;7.07;2.55;;;19.80;50.10;;;;;;4965961;28;20034;-77
2023/05/03 12:09:24;;;;;;;8.13;2.42;;;19.80;48.70;;;;;;4976446;28;20031;-78
2023/05/03 12:11:50;;;;;;;12.10;2.50;;;19.70;51.80;;;;;;4964527;28;20030;-79
2023/05/03 12:14:16;;;;;;;8.23;2.40;;;19.70;55.20;;;;;;4974549;28;20038;-80
2023/05/03 12:16:50;;;;;;;4.97;2.15;;;19.80;57.60;;;;;;4974002;28;20034;-81
2023/05/03 12:19:27;;;;;;;5.28;1.88;;;19.90;51.00;;;;;;4969011;28;20035;-80
2023/05/03 12:21:52;;;;;;;10.55;2.75;;;19.80;52.20;;;;;;4973735;28;20027;-79
2023/05/03 12:24:18;;;;;;;6.25;1.88;;;19.90;50.10;;;;;;4971214;28;20094;-79
2023/05/03 12:26:45;;;;;;;4.85;2.00;;;20.10;56.60;;;;;;4970828;28;20551;-79
2023/05/03 12:29:13;;;;;;;6.43;2.10;;;20.20;50.40;;;;;;4968509;28;20151;-79
2023/05/03 12:31:39;;;;;;;4.70;1.83;;;20.30;51.30;;;;;;4972484;28;20025;-78
2023/05/03 12:34:05;;;;;;;4.00;1.02;;;20.40;52.50;;;;;;4957130;28;20476;-78
2023/05/03 12:36:34;;;;;;;6.90;2.17;;;20.40;61.40;;;;;;4946227;28;20021;-78
2023/05/03 12:39:00;;;;;;;6.85;1.85;;;20.50;51.60;;;;;;4958018;28;20050;-78
2023/05/03 12:41:28;;;;;;;3.85;1.80;;;20.80;56.00;;;;;;4962316;28;20105;-80
2023/05/03 12:43:55;;;;;;;10.40;1.88;;;20.90;56.10;;;;;;4969698;28;20054;-80
2023/05/03 12:46:22;;;;;;;8.68;1.67;;;21.00;61.30;;;;;;4958014;28;20035;-79
2023/05/03 12:48:51;;;;;;;5.90;1.63;;;21.10;56.60;;;;;;4966687;28;20073;-79
2023/05/03 12:51:17;;;;;;;5.20;1.98;;;20.90;57.10;;;;;;4968136;28;20035;-77
2023/05/03 12:53:43;;;;;;;5.90;2.17;;;20.90;54.20;;;;;;4970175;28;20085;-79